createdAt,value
2023-08-03T00:00:07.675Z,0
2023-08-03T00:03:08.551Z,0
2023-08-03T00:06:07.806Z,0
2023-08-03T00:09:07.949Z,0
2023-08-03T00:12:07.564Z,0
2023-08-03T00:15:07.570Z,0
2023-08-03T00:18:08.697Z,0
2023-08-03T00:21:07.616Z,0
2023-08-03T00:24:07.598Z,0
2023-08-03T00:27:07.612Z,0
2023-08-03T00:30:07.776Z,0
2023-08-03T00:33:07.962Z,0
2023-08-03T00:36:07.702Z,0
2023-08-03T00:39:07.682Z,0
2023-08-03T00:42:07.625Z,0
2023-08-03T00:45:07.669Z,0
2023-08-03T00:48:07.964Z,0
2023-08-03T00:51:07.605Z,0
2023-08-03T00:54:07.626Z,0
2023-08-03T00:57:07.588Z,0
2023-08-03T01:00:07.784Z,0
2023-08-03T01:03:07.674Z,0
2023-08-03T01:06:07.586Z,0
2023-08-03T01:09:07.667Z,0
2023-08-03T01:12:07.736Z,0
2023-08-03T01:15:07.708Z,0
2023-08-03T01:18:07.948Z,0
2023-08-03T01:21:07.653Z,0
2023-08-03T01:24:07.716Z,0
2023-08-03T01:27:07.765Z,0
2023-08-03T01:30:07.615Z,0
2023-08-03T01:33:08.124Z,0
2023-08-03T01:36:07.495Z,0
2023-08-03T01:39:07.730Z,0
2023-08-03T01:42:07.715Z,0
2023-08-03T01:45:07.662Z,0
2023-08-03T01:48:07.883Z,0
2023-08-03T01:51:07.604Z,0
2023-08-03T01:54:07.673Z,0
2023-08-03T01:57:07.710Z,0
2023-08-03T02:00:07.752Z,0
2023-08-03T02:03:07.717Z,0
2023-08-03T02:06:07.782Z,0
2023-08-03T02:09:07.688Z,0
2023-08-03T02:12:07.753Z,0
2023-08-03T02:15:07.830Z,0
2023-08-03T02:18:08.307Z,0
2023-08-03T02:21:07.562Z,0
2023-08-03T02:24:07.549Z,0
2023-08-03T02:27:07.759Z,0
2023-08-03T02:30:07.770Z,0
2023-08-03T02:33:07.989Z,0
2023-08-03T02:36:07.500Z,0
2023-08-03T02:39:07.870Z,0
2023-08-03T02:42:07.885Z,0
2023-08-03T02:45:07.622Z,0
2023-08-03T02:48:07.657Z,0
2023-08-03T02:51:07.616Z,0
2023-08-03T02:54:07.578Z,0
2023-08-03T02:57:07.556Z,0
2023-08-03T03:00:07.673Z,0
2023-08-03T03:03:07.925Z,0
2023-08-03T03:06:08.006Z,0
2023-08-03T03:09:07.629Z,0
2023-08-03T03:12:07.774Z,3
2023-08-03T03:15:07.716Z,3
2023-08-03T03:18:08.014Z,7
2023-08-03T03:21:07.659Z,13
2023-08-03T03:24:07.587Z,20
2023-08-03T03:27:07.629Z,33
2023-08-03T03:30:07.948Z,37
2023-08-03T03:33:07.809Z,40
2023-08-03T03:36:07.761Z,57
2023-08-03T03:39:07.781Z,57
2023-08-03T03:42:07.640Z,110
2023-08-03T03:45:07.927Z,177
2023-08-03T03:48:08.271Z,180
2023-08-03T03:51:07.647Z,183
2023-08-03T03:54:07.614Z,220
2023-08-03T03:57:07.618Z,250
2023-08-03T04:00:08.140Z,347
2023-08-03T04:03:08.095Z,490
2023-08-03T04:06:08.019Z,547
2023-08-03T04:09:07.760Z,560
2023-08-03T04:12:07.890Z,560
2023-08-03T04:15:07.719Z,680
2023-08-03T04:18:08.141Z,930
2023-08-03T04:21:07.824Z,620
2023-08-03T04:24:07.739Z,803
2023-08-03T04:27:07.777Z,880
2023-08-03T04:30:07.891Z,1303
2023-08-03T04:33:07.775Z,1393
2023-08-03T04:36:07.703Z,1410
2023-08-03T04:39:07.921Z,1653
2023-08-03T04:42:08.081Z,1927
2023-08-03T04:45:08.174Z,2317
2023-08-03T04:48:07.945Z,1983
2023-08-03T04:51:07.904Z,2847
2023-08-03T04:54:08.087Z,2747
2023-08-03T04:57:07.893Z,3207
2023-08-03T05:00:07.877Z,3060
2023-08-03T05:03:08.296Z,2017
2023-08-03T05:06:12.763Z,1330
2023-08-03T05:09:07.817Z,1323
2023-08-03T05:12:08.400Z,1683
2023-08-03T05:15:07.842Z,2737
2023-08-03T05:18:07.920Z,4263
2023-08-03T05:21:07.847Z,4587
2023-08-03T05:24:07.715Z,5553
2023-08-03T05:27:11.045Z,3133
2023-08-03T05:30:08.220Z,4160
2023-08-03T05:33:07.866Z,3497
2023-08-03T05:36:07.877Z,8123
2023-08-03T05:39:07.651Z,6993
2023-08-03T05:42:07.647Z,5227
2023-08-03T05:45:07.812Z,3837
2023-08-03T05:48:08.001Z,2680
2023-08-03T05:51:07.810Z,3070
2023-08-03T05:54:07.789Z,5133
2023-08-03T05:57:07.774Z,2870
2023-08-03T06:00:07.836Z,2187
2023-08-03T06:03:12.081Z,3490
2023-08-03T06:06:08.721Z,5470
2023-08-03T06:09:07.684Z,7770
2023-08-03T06:12:07.644Z,6837
2023-08-03T06:15:07.832Z,5713
2023-08-03T06:18:07.768Z,7627
2023-08-03T06:21:07.613Z,6730
2023-08-03T06:24:07.654Z,6767
2023-08-03T06:27:07.687Z,7230
2023-08-03T06:30:07.553Z,12060
2023-08-03T06:33:07.880Z,8663
2023-08-03T06:36:07.801Z,7623
2023-08-03T06:39:07.854Z,8900
2023-08-03T06:42:07.665Z,11683
2023-08-03T06:45:07.779Z,9803
2023-08-03T06:48:08.084Z,9620
2023-08-03T06:51:07.540Z,9043
2023-08-03T06:54:07.808Z,6783
2023-08-03T06:57:07.648Z,6660
2023-08-03T07:00:07.985Z,10087
2023-08-03T07:03:08.095Z,22347
2023-08-03T07:06:07.999Z,16900
2023-08-03T07:09:07.678Z,16560
2023-08-03T07:12:07.797Z,13140
2023-08-03T07:15:07.675Z,14987
2023-08-03T07:18:08.063Z,14430
2023-08-03T07:21:07.796Z,18510
2023-08-03T07:24:07.609Z,14857
2023-08-03T07:27:07.668Z,14427
2023-08-03T07:30:07.737Z,12037
2023-08-03T07:33:08.071Z,15110
2023-08-03T07:36:07.598Z,14413
2023-08-03T07:39:07.629Z,13360
2023-08-03T07:42:07.776Z,14210
2023-08-03T07:45:07.650Z,13807
2023-08-03T07:48:07.924Z,16220
2023-08-03T07:51:07.793Z,21010
2023-08-03T07:54:07.696Z,23067
2023-08-03T07:57:07.554Z,20613
2023-08-03T08:00:07.705Z,20680
2023-08-03T08:03:07.916Z,20400
2023-08-03T08:06:09.228Z,21213
2023-08-03T08:09:07.661Z,18603
2023-08-03T08:12:07.553Z,19413
2023-08-03T08:15:07.732Z,21980
2023-08-03T08:18:08.010Z,24557
2023-08-03T08:21:07.946Z,25970
2023-08-03T08:24:08.220Z,33703
2023-08-03T08:27:08.379Z,24277
2023-08-03T08:30:07.820Z,33313
2023-08-03T08:33:08.179Z,24360
2023-08-03T08:36:07.821Z,21817
2023-08-03T08:39:07.970Z,59737
2023-08-03T08:42:07.630Z,23933
2023-08-03T08:45:09.256Z,54800
2023-08-03T09:00:08.160Z,58713
2023-08-03T09:03:08.143Z,31877
2023-08-03T09:09:07.809Z,41443
2023-08-03T09:12:12.224Z,62733
2023-08-03T09:15:07.644Z,69973
2023-08-03T09:18:08.190Z,26387
2023-08-03T09:27:07.990Z,28590
2023-08-03T09:30:16.667Z,23647
2023-08-03T09:33:08.173Z,14190
2023-08-03T09:39:30.980Z,19010
2023-08-03T09:42:34.727Z,17030
2023-08-03T09:48:08.021Z,15810
2023-08-03T09:51:07.535Z,7430
2023-08-03T10:00:08.330Z,26260
2023-08-03T10:03:07.708Z,23497
2023-08-03T10:06:07.686Z,15493
2023-08-03T10:09:07.570Z,11620
2023-08-03T10:12:07.715Z,13803
2023-08-03T10:15:07.628Z,16973
2023-08-03T10:18:07.955Z,15513
2023-08-03T10:21:08.019Z,13437
2023-08-03T10:24:08.430Z,14593
2023-08-03T10:27:25.961Z,14663
2023-08-03T10:30:07.672Z,14943
2023-08-03T10:33:07.718Z,30503
2023-08-03T10:36:07.573Z,22067
2023-08-03T10:39:07.737Z,25197
2023-08-03T10:42:07.575Z,37667
2023-08-03T10:45:07.715Z,23957
2023-08-03T10:48:08.493Z,18133
2023-08-03T10:51:07.733Z,15233
2023-08-03T10:54:07.505Z,19903
2023-08-03T10:57:07.923Z,27840
2023-08-03T11:00:07.692Z,34990
2023-08-03T11:03:08.155Z,47377
2023-08-03T11:06:07.603Z,28743
2023-08-03T11:09:07.588Z,38347
2023-08-03T11:12:07.576Z,26703
2023-08-03T11:15:07.608Z,29060
2023-08-03T11:18:07.832Z,35527
2023-08-03T11:21:07.502Z,46530
2023-08-03T11:24:08.134Z,39583
2023-08-03T11:27:07.562Z,28903
2023-08-03T11:30:07.703Z,29167
2023-08-03T11:33:07.985Z,30183
2023-08-03T11:36:07.734Z,33343
2023-08-03T11:39:07.473Z,29057
2023-08-03T11:42:08.410Z,37377
2023-08-03T11:45:07.540Z,23720
2023-08-03T11:48:07.806Z,19840
2023-08-03T11:51:07.539Z,19960
2023-08-03T11:54:07.646Z,46330
2023-08-03T11:57:07.496Z,45887
2023-08-03T12:00:07.949Z,38520
2023-08-03T12:03:10.052Z,36190
2023-08-03T12:06:56.352Z,39113
2023-08-03T12:09:08.136Z,27793
2023-08-03T12:12:07.866Z,28217
2023-08-03T12:15:07.916Z,39040
2023-08-03T12:18:08.085Z,26000
2023-08-03T12:21:11.213Z,39760
2023-08-03T12:24:10.451Z,92450
2023-08-03T12:30:07.569Z,19683
2023-08-03T12:33:07.839Z,14153
2023-08-03T12:36:07.851Z,15647
2023-08-03T12:39:10.543Z,17537
2023-08-03T12:42:07.627Z,13613
2023-08-03T12:45:07.588Z,15507
2023-08-03T12:48:21.029Z,14797
2023-08-03T12:51:07.524Z,17830
2023-08-03T12:54:07.580Z,18217
2023-08-03T12:57:08.280Z,12780
2023-08-03T13:00:08.319Z,9903
2023-08-03T13:03:07.898Z,9057
2023-08-03T13:06:07.750Z,8623
2023-08-03T13:09:07.646Z,6110
2023-08-03T13:12:07.583Z,7310
2023-08-03T13:15:07.545Z,6957
2023-08-03T13:18:09.068Z,5383
2023-08-03T13:21:09.816Z,4163
2023-08-03T13:24:07.625Z,11090
2023-08-03T13:27:07.708Z,20687
2023-08-03T13:30:07.653Z,12903
2023-08-03T13:33:07.988Z,11890
2023-08-03T13:36:07.583Z,17283
2023-08-03T13:39:07.507Z,31707
2023-08-03T13:42:07.526Z,33780
2023-08-03T13:45:07.649Z,29723
2023-08-03T13:48:08.352Z,18987
2023-08-03T13:51:07.567Z,13733
2023-08-03T13:54:07.577Z,13247
2023-08-03T13:57:13.095Z,12857
2023-08-03T14:00:10.555Z,10813
2023-08-03T14:03:08.343Z,10573
2023-08-03T14:12:08.708Z,12513
2023-08-03T14:15:45.873Z,10200
2023-08-03T14:18:55.114Z,11337
2023-08-03T14:21:07.804Z,7910
2023-08-03T14:24:09.850Z,7817
2023-08-03T14:27:08.268Z,9653
2023-08-03T14:30:07.806Z,9097
2023-08-03T14:33:07.898Z,15483
2023-08-03T14:36:07.696Z,15997
2023-08-03T14:39:07.861Z,15563
2023-08-03T14:42:12.653Z,11747
2023-08-03T14:45:07.814Z,9833
2023-08-03T14:48:20.764Z,10830
2023-08-03T14:54:10.946Z,9127
2023-08-03T14:57:07.770Z,8990
2023-08-03T15:00:08.278Z,8363
2023-08-03T15:03:08.307Z,14937
2023-08-03T15:06:08.697Z,22233
2023-08-03T15:09:07.997Z,50163
2023-08-03T15:12:07.651Z,18790
2023-08-03T15:15:16.478Z,23247
2023-08-03T15:18:09.272Z,39350
2023-08-03T15:21:20.621Z,20660
2023-08-03T15:24:13.290Z,34940
2023-08-03T15:27:25.414Z,33677
2023-08-03T15:36:13.082Z,32283
2023-08-03T15:39:15.404Z,31807
2023-08-03T15:42:21.925Z,30897
2023-08-03T15:45:24.586Z,30433
2023-08-03T15:51:23.673Z,28880
2023-08-03T15:54:36.297Z,29263
2023-08-03T15:57:08.486Z,28227
2023-08-03T16:00:07.939Z,28307
2023-08-03T16:03:07.808Z,27763
2023-08-03T16:06:07.509Z,25473
2023-08-03T16:09:07.516Z,25830
2023-08-03T16:12:07.800Z,25553
2023-08-03T16:15:07.554Z,24647
2023-08-03T16:18:07.676Z,24230
2023-08-03T16:21:07.480Z,23573
2023-08-03T16:24:07.654Z,22990
2023-08-03T16:27:09.372Z,22117
2023-08-03T16:30:10.624Z,21823
2023-08-03T16:33:08.425Z,21483
2023-08-03T16:36:07.890Z,20973
2023-08-03T16:39:07.795Z,20877
2023-08-03T16:42:07.551Z,19963
2023-08-03T16:45:07.664Z,18657
2023-08-03T16:48:08.356Z,18600
2023-08-03T16:51:07.620Z,18337
2023-08-03T16:54:07.590Z,17830
2023-08-03T16:57:07.531Z,17257
2023-08-03T17:00:07.922Z,16393
2023-08-03T17:03:07.916Z,15870
2023-08-03T17:06:07.553Z,12743
2023-08-03T17:09:07.506Z,16320
2023-08-03T17:12:07.582Z,16637
2023-08-03T17:15:07.558Z,15220
2023-08-03T17:18:11.236Z,11697
2023-08-03T17:21:07.444Z,10827
2023-08-03T17:24:07.590Z,7697
2023-08-03T17:27:07.524Z,5040
2023-08-03T17:30:07.585Z,3240
2023-08-03T17:33:07.929Z,2867
2023-08-03T17:36:07.497Z,2813
2023-08-03T17:39:07.594Z,3323
2023-08-03T17:42:07.650Z,3607
2023-08-03T17:45:07.541Z,4213
2023-08-03T17:48:07.827Z,2880
2023-08-03T17:51:07.450Z,2270
2023-08-03T17:54:07.515Z,1927
2023-08-03T17:57:07.600Z,1747
2023-08-03T18:00:07.693Z,1583
2023-08-03T18:03:08.111Z,1493
2023-08-03T18:06:07.609Z,1647
2023-08-03T18:09:07.517Z,2230
2023-08-03T18:12:07.584Z,3517
2023-08-03T18:15:07.516Z,3090
2023-08-03T18:18:08.712Z,1727
2023-08-03T18:21:07.500Z,1260
2023-08-03T18:24:07.535Z,1120
2023-08-03T18:27:07.566Z,877
2023-08-03T18:30:07.540Z,853
2023-08-03T18:33:07.726Z,703
2023-08-03T18:36:08.590Z,640
2023-08-03T18:39:07.608Z,567
2023-08-03T18:42:07.613Z,497
2023-08-03T18:45:10.478Z,433
2023-08-03T18:48:07.561Z,487
2023-08-03T18:51:07.522Z,453
2023-08-03T18:54:07.582Z,400
2023-08-03T18:57:07.486Z,340
2023-08-03T19:00:07.588Z,257
2023-08-03T19:03:07.964Z,200
2023-08-03T19:06:07.661Z,150
2023-08-03T19:09:07.522Z,110
2023-08-03T19:12:07.442Z,83
2023-08-03T19:15:07.508Z,57
2023-08-03T19:18:07.881Z,33
2023-08-03T19:21:07.473Z,23
2023-08-03T19:24:10.043Z,17
2023-08-03T19:27:07.455Z,10
2023-08-03T19:30:07.563Z,10
2023-08-03T19:33:07.936Z,7
2023-08-03T19:36:07.615Z,3
2023-08-03T19:39:07.531Z,3
2023-08-03T19:42:07.550Z,0
2023-08-03T19:45:07.628Z,0
2023-08-03T19:48:07.893Z,0
2023-08-03T19:57:07.491Z,0
2023-08-03T20:09:08.082Z,0
2023-08-03T20:12:07.880Z,0
2023-08-03T20:21:07.432Z,0
2023-08-03T20:24:08.554Z,0
2023-08-03T20:27:15.835Z,0
2023-08-03T20:30:08.397Z,0
2023-08-03T20:33:12.569Z,0
2023-08-03T20:36:09.581Z,0
2023-08-03T20:42:49.431Z,0
2023-08-03T20:45:48.575Z,0
2023-08-03T20:48:43.782Z,0
2023-08-03T20:51:07.539Z,0
2023-08-03T20:54:42.587Z,0
2023-08-03T20:57:07.445Z,0
2023-08-03T21:00:07.758Z,0
2023-08-03T21:03:10.097Z,0
2023-08-03T21:06:07.527Z,0
2023-08-03T21:09:07.508Z,0
2023-08-03T21:12:07.415Z,0
2023-08-03T21:15:07.558Z,0
2023-08-03T21:19:09.757Z,0
2023-08-03T21:21:07.441Z,0
2023-08-03T21:24:07.403Z,0
2023-08-03T21:27:07.504Z,0
2023-08-03T21:33:07.877Z,0
2023-08-03T21:36:07.484Z,0
2023-08-03T21:39:07.505Z,0
2023-08-03T21:42:11.801Z,0
2023-08-03T21:45:07.556Z,0
2023-08-03T21:48:07.677Z,0
2023-08-03T21:51:07.444Z,0
2023-08-03T21:54:07.522Z,0
2023-08-03T21:57:07.793Z,0
2023-08-03T22:00:08.483Z,0
2023-08-03T22:03:07.726Z,0
2023-08-03T22:06:07.508Z,0
2023-08-03T22:09:07.523Z,0
2023-08-03T22:12:07.845Z,0
2023-08-03T22:15:07.427Z,0
2023-08-03T22:18:07.616Z,0
2023-08-03T22:21:07.416Z,0
2023-08-03T22:24:07.523Z,0
2023-08-03T22:27:07.456Z,0
2023-08-03T22:30:07.540Z,0
2023-08-03T22:33:07.718Z,0
2023-08-03T22:36:07.464Z,0
2023-08-03T22:39:07.416Z,0
2023-08-03T22:42:07.522Z,0
2023-08-03T22:45:07.471Z,0
2023-08-03T22:51:07.397Z,0
2023-08-03T22:54:07.460Z,0
2023-08-03T22:57:07.406Z,0
2023-08-03T23:00:07.517Z,0
2023-08-03T23:03:08.223Z,0
2023-08-03T23:06:07.497Z,0
2023-08-03T23:09:07.567Z,0
2023-08-03T23:12:07.516Z,0
2023-08-03T23:15:07.485Z,0
2023-08-03T23:18:07.655Z,0
2023-08-03T23:21:07.534Z,0
2023-08-03T23:24:07.474Z,0
2023-08-03T23:27:07.451Z,0
2023-08-03T23:30:07.510Z,0
2023-08-03T23:33:08.026Z,0
2023-08-03T23:36:07.526Z,0
2023-08-03T23:39:07.454Z,0
2023-08-03T23:42:07.517Z,0
2023-08-03T23:45:07.461Z,0
2023-08-03T23:48:07.909Z,0
2023-08-03T23:51:07.470Z,0
2023-08-03T23:54:07.475Z,0
2023-08-03T23:57:07.487Z,0
